Time;durP1;ratioP1;P1;durP2;ratioP2;P2;SDS_P1;SDS_P2;PMS_P1;PMS_P2;Temp;Humidity;BMP_temperature;BMP_pressure;BME280_temperature;BME280_humidity;BME280_pressure;Samples;Min_cycle;Max_cycle;Signal;HPM_P1;HPM_P2
2022/01/11 00:02:03;;;;;;;18.03;13.27;;;4.30;99.90;;;;;;5000373;28;20214;-57
2022/01/11 00:04:29;;;;;;;19.67;14.03;;;4.30;99.90;;;;;;5008619;28;20188;-57
2022/01/11 00:06:55;;;;;;;20.30;14.00;;;3.30;99.90;;;;;;5006957;28;20426;-57
2022/01/11 00:09:30;;;;;;;24.30;15.07;;;3.80;99.90;;;;;;5004620;28;20454;-57
2022/01/11 00:11:56;;;;;;;23.23;14.60;;;3.80;99.90;;;;;;4998128;28;20237;-57
2022/01/11 00:14:21;;;;;;;25.57;15.50;;;3.70;99.90;;;;;;5002235;28;20208;-57
2022/01/11 00:16:47;;;;;;;20.40;14.70;;;4.20;99.90;;;;;;5005575;28;20537;-56
2022/01/11 00:19:14;;;;;;;18.33;14.10;;;3.60;99.90;;;;;;5004229;28;20208;-56
2022/01/11 00:21:45;;;;;;;22.65;15.75;;;4.30;99.90;;;;;;5005900;28;20653;-57
2022/01/11 00:24:28;;;;;;;19.23;14.55;;;4.40;99.90;;;;;;5008315;28;20205;-56
2022/01/11 00:26:55;;;;;;;21.25;14.68;;;4.20;99.90;;;;;;5010119;28;20194;-56
2022/01/11 00:29:20;;;;;;;19.98;14.23;;;4.00;99.90;;;;;;5007702;28;20308;-56
2022/01/11 00:31:47;;;;;;;21.20;13.90;;;4.10;99.90;;;;;;4993961;28;20649;-56
2022/01/11 00:34:15;;;;;;;21.63;14.35;;;4.10;99.90;;;;;;5006098;28;20183;-56
2022/01/11 00:36:42;;;;;;;20.45;14.38;;;3.60;99.90;;;;;;5005013;28;20257;-56
2022/01/11 00:39:09;;;;;;;19.35;14.68;;;3.50;99.90;;;;;;5004460;28;20868;-56
2022/01/11 00:41:38;;;;;;;18.52;13.93;;;4.00;99.90;;;;;;5003159;28;20195;-56
2022/01/11 00:44:05;;;;;;;19.55;13.80;;;4.10;99.90;;;;;;5005264;28;20183;-56
2022/01/11 00:46:31;;;;;;;21.45;14.15;;;4.00;99.90;;;;;;5001116;28;20196;-56
2022/01/11 00:48:56;;;;;;;18.07;13.60;;;3.90;99.90;;;;;;5008859;28;20188;-57
2022/01/11 00:51:22;;;;;;;22.90;14.90;;;4.10;99.90;;;;;;5008497;28;20501;-57
2022/01/11 00:53:48;;;;;;;19.37;14.50;;;4.00;99.90;;;;;;5007206;28;20219;-56
2022/01/11 00:56:14;;;;;;;24.77;14.32;;;4.00;99.90;;;;;;5003570;28;20749;-56
2022/01/11 00:58:41;;;;;;;19.43;14.93;;;3.70;99.90;;;;;;5011417;28;20262;-56
2022/01/11 01:01:07;;;;;;;23.33;14.10;;;3.80;99.90;;;;;;4992120;28;20436;-56
2022/01/11 01:03:33;;;;;;;22.10;14.40;;;4.00;99.90;;;;;;5003861;28;20465;-56
2022/01/11 01:05:59;;;;;;;19.42;13.35;;;4.00;99.90;;;;;;5009284;28;20385;-56
2022/01/11 01:08:25;;;;;;;23.73;13.93;;;4.10;99.90;;;;;;5008838;28;20295;-56
2022/01/11 01:10:50;;;;;;;21.87;13.67;;;4.20;99.90;;;;;;5011764;28;20457;-56
2022/01/11 01:13:20;;;;;;;18.20;12.27;;;4.00;99.90;;;;;;5014473;28;20213;-56
2022/01/11 01:15:47;;;;;;;21.83;14.95;;;4.30;99.90;;;;;;4994403;28;20271;-56
2022/01/11 01:18:16;;;;;;;18.65;13.80;;;4.20;99.90;;;;;;4999126;28;20184;-56
2022/01/11 01:20:43;;;;;;;19.20;14.00;;;4.20;99.90;;;;;;5004815;28;20208;-56
2022/01/11 01:23:09;;;;;;;19.55;14.15;;;4.40;99.90;;;;;;5010051;28;20189;-56
2022/01/11 01:25:34;;;;;;;19.90;14.60;;;4.20;99.90;;;;;;5003233;28;20215;-57
2022/01/11 01:28:00;;;;;;;20.07;13.93;;;4.10;99.90;;;;;;4999190;28;20183;-56
2022/01/11 01:30:26;;;;;;;23.17;14.53;;;3.90;99.90;;;;;;5000661;28;20317;-56
2022/01/11 01:32:52;;;;;;;24.13;13.50;;;4.10;99.90;;;;;;5005196;28;20273;-56
2022/01/11 01:35:21;;;;;;;23.23;13.80;;;4.20;99.90;;;;;;5007019;28;20301;-56
2022/01/11 01:37:48;;;;;;;16.95;13.75;;;4.40;99.90;;;;;;5011652;28;20635;-57
2022/01/11 01:40:17;;;;;;;19.85;14.43;;;3.60;99.90;;;;;;5008299;28;20203;-56
2022/01/11 01:42:43;;;;;;;24.73;14.68;;;3.90;99.90;;;;;;5008477;28;20199;-56
2022/01/11 01:45:09;;;;;;;21.63;13.38;;;3.90;99.90;;;;;;5009026;28;20195;-56
2022/01/11 01:47:34;;;;;;;21.80;15.00;;;3.90;99.90;;;;;;5011772;28;20527;-56
2022/01/11 01:50:00;;;;;;;18.10;13.67;;;3.60;99.90;;;;;;5011062;28;20253;-56
2022/01/11 01:52:26;;;;;;;20.27;14.57;;;4.00;99.90;;;;;;5008710;28;20203;-56
2022/01/11 01:54:52;;;;;;;25.40;14.45;;;4.00;99.90;;;;;;5005040;28;20581;-56
2022/01/11 01:57:19;;;;;;;28.30;17.63;;;4.00;99.90;;;;;;4996309;28;20331;-56
2022/01/11 01:59:44;;;;;;;27.50;17.98;;;4.10;99.90;;;;;;5000129;28;20221;-56
2022/01/11 02:02:12;;;;;;;25.37;18.07;;;4.50;99.90;;;;;;4999882;28;20183;-56
2022/01/11 02:04:37;;;;;;;25.52;16.85;;;4.50;99.90;;;;;;5012457;28;20523;-56
2022/01/11 02:07:04;;;;;;;24.90;17.27;;;4.30;99.90;;;;;;5014287;28;20637;-56
2022/01/11 02:09:30;;;;;;;24.48;18.00;;;4.30;99.90;;;;;;5007542;28;20223;-57
2022/01/11 02:11:56;;;;;;;29.53;17.80;;;4.50;99.90;;;;;;5011604;28;20568;-56
2022/01/11 02:14:21;;;;;;;26.75;19.02;;;4.40;99.90;;;;;;5009475;28;20183;-57
2022/01/11 02:16:47;;;;;;;26.30;18.80;;;3.70;99.90;;;;;;4995309;28;20268;-57
2022/01/11 02:19:13;;;;;;;35.87;20.40;;;4.60;99.90;;;;;;5011125;28;20528;-57
2022/01/11 02:21:39;;;;;;;25.93;18.67;;;3.80;99.90;;;;;;5014659;28;20190;-56
2022/01/11 02:24:05;;;;;;;22.17;16.70;;;3.90;99.90;;;;;;5007130;28;20203;-56
2022/01/11 02:26:31;;;;;;;22.08;14.07;;;4.50;99.90;;;;;;5004209;28;20477;-56
2022/01/11 02:28:57;;;;;;;20.38;13.82;;;3.60;99.90;;;;;;5006696;28;20183;-56
2022/01/11 02:31:23;;;;;;;21.40;14.20;;;4.10;99.90;;;;;;5005781;28;20211;-57
2022/01/11 02:33:57;;;;;;;20.87;13.63;;;4.40;99.90;;;;;;5007010;28;20702;-57
2022/01/11 02:36:29;;;;;;;16.92;13.43;;;4.10;99.90;;;;;;5014685;28;20305;-56
2022/01/11 02:38:56;;;;;;;22.17;15.10;;;4.10;99.90;;;;;;5003708;28;20179;-56
2022/01/11 02:41:22;;;;;;;18.85;13.20;;;4.20;99.90;;;;;;5007176;28;20211;-56
2022/01/11 02:43:49;;;;;;;20.38;14.30;;;4.50;99.90;;;;;;5009634;28;20606;-57
2022/01/11 02:46:19;;;;;;;22.90;14.77;;;4.40;99.90;;;;;;5003252;28;20180;-56
2022/01/11 02:48:49;;;;;;;20.15;14.48;;;4.10;99.90;;;;;;5013487;28;20191;-56
2022/01/11 02:51:17;;;;;;;19.10;12.85;;;4.20;99.90;;;;;;5009082;28;20199;-56
2022/01/11 02:53:46;;;;;;;21.13;13.57;;;4.40;99.90;;;;;;5004398;28;20364;-56
2022/01/11 02:56:12;;;;;;;20.38;13.93;;;4.40;99.90;;;;;;5012503;28;20190;-56
2022/01/11 02:58:38;;;;;;;18.67;12.35;;;4.00;99.90;;;;;;5014427;28;20574;-56
2022/01/11 03:01:05;;;;;;;20.95;13.63;;;4.10;99.90;;;;;;4996687;28;20218;-56
2022/01/11 03:03:31;;;;;;;19.40;12.85;;;4.10;99.90;;;;;;5019784;28;20223;-56
2022/01/11 03:06:02;;;;;;;19.70;13.50;;;4.20;99.90;;;;;;5009094;28;20238;-56
2022/01/11 03:08:39;;;;;;;21.98;14.27;;;4.00;99.90;;;;;;5004084;28;20202;-56
2022/01/11 03:11:06;;;;;;;19.27;14.13;;;4.20;99.90;;;;;;5012680;28;20207;-56
2022/01/11 03:13:35;;;;;;;19.20;14.15;;;4.10;99.90;;;;;;5009927;28;20212;-56
2022/01/11 03:16:01;;;;;;;18.50;13.95;;;4.10;99.90;;;;;;5003904;28;20231;-56
2022/01/11 03:18:27;;;;;;;19.00;13.40;;;4.20;99.90;;;;;;5009735;28;20799;-57
2022/01/11 03:20:53;;;;;;;17.17;13.80;;;4.10;99.90;;;;;;5016494;28;20204;-56
2022/01/11 03:23:20;;;;;;;22.02;14.27;;;4.00;99.90;;;;;;5006866;28;20183;-57
2022/01/11 03:25:51;;;;;;;18.35;13.13;;;4.20;99.90;;;;;;5010760;28;20212;-57
2022/01/11 03:28:17;;;;;;;21.00;15.15;;;4.30;99.90;;;;;;5010992;28;20554;-56
2022/01/11 03:30:43;;;;;;;26.05;15.20;;;4.00;99.90;;;;;;4996917;28;21313;-56
2022/01/11 03:33:08;;;;;;;21.47;14.17;;;4.20;99.90;;;;;;4999526;28;20308;-57
2022/01/11 03:35:36;;;;;;;20.80;13.87;;;4.40;99.90;;;;;;5009694;28;20633;-56
2022/01/11 03:38:04;;;;;;;20.95;14.57;;;4.10;99.90;;;;;;5003666;28;20528;-56
2022/01/11 03:40:30;;;;;;;21.90;15.55;;;3.50;99.90;;;;;;5005745;28;20208;-56
2022/01/11 03:42:56;;;;;;;19.85;14.02;;;3.50;99.90;;;;;;5008898;28;20195;-56
2022/01/11 03:45:22;;;;;;;25.57;17.03;;;3.90;99.90;;;;;;4999831;28;20207;-56
2022/01/11 03:47:50;;;;;;;23.48;14.88;;;4.20;99.90;;;;;;4997306;28;20442;-57
2022/01/11 03:50:16;;;;;;;21.92;14.18;;;3.90;99.90;;;;;;5005556;28;20207;-56
2022/01/11 03:52:43;;;;;;;23.48;16.15;;;4.00;99.90;;;;;;5011314;28;20247;-57
2022/01/11 03:55:12;;;;;;;22.27;14.90;;;4.00;99.90;;;;;;5014167;28;20182;-56
2022/01/11 03:57:39;;;;;;;18.52;14.52;;;4.00;99.90;;;;;;4991788;28;20219;-56
2022/01/11 04:00:10;;;;;;;20.65;13.82;;;4.20;99.90;;;;;;5008458;28;20632;-56
2022/01/11 04:02:36;;;;;;;22.60;14.73;;;4.10;99.90;;;;;;5011238;28;20191;-56
2022/01/11 04:05:02;;;;;;;22.07;14.77;;;4.20;99.90;;;;;;5009472;28;20183;-56
2022/01/11 04:07:28;;;;;;;21.40;14.85;;;4.00;99.90;;;;;;5003363;28;20185;-57
2022/01/11 04:09:56;;;;;;;21.25;14.13;;;4.00;99.90;;;;;;4988159;28;20207;-57
2022/01/11 04:12:22;;;;;;;22.90;14.77;;;3.80;99.90;;;;;;5005748;28;20218;-57
2022/01/11 04:14:48;;;;;;;23.65;16.67;;;4.00;99.90;;;;;;5000299;28;20194;-57
2022/01/11 04:17:15;;;;;;;28.58;16.02;;;4.10;99.90;;;;;;5005029;28;20186;-56
2022/01/11 04:19:40;;;;;;;19.00;14.75;;;4.20;99.90;;;;;;5004781;28;20679;-57
2022/01/11 04:22:07;;;;;;;22.90;15.30;;;4.10;99.90;;;;;;5007765;28;20194;-56
2022/01/11 04:24:33;;;;;;;25.85;15.93;;;4.00;99.90;;;;;;5003093;28;20661;-56
2022/01/11 04:26:58;;;;;;;23.40;14.70;;;3.80;99.90;;;;;;5006871;28;20210;-56
2022/01/11 04:29:24;;;;;;;21.40;16.07;;;3.80;99.90;;;;;;5006518;28;20641;-57
2022/01/11 04:31:50;;;;;;;24.80;15.83;;;3.80;99.90;;;;;;5003064;28;20256;-58
2022/01/11 04:34:15;;;;;;;24.13;15.50;;;3.70;99.90;;;;;;5006171;28;20230;-57
2022/01/11 04:36:41;;;;;;;25.67;17.40;;;3.50;99.90;;;;;;5013323;28;20541;-57
2022/01/11 04:39:10;;;;;;;25.20;17.00;;;3.70;99.90;;;;;;4992832;28;20279;-57
2022/01/11 04:41:36;;;;;;;31.73;18.45;;;3.60;99.90;;;;;;5014414;28;20528;-57
2022/01/11 04:44:03;;;;;;;30.55;19.42;;;3.90;99.90;;;;;;5016665;28;20221;-57
2022/01/11 04:46:29;;;;;;;25.20;16.13;;;3.60;99.90;;;;;;4999879;28;20184;-57
2022/01/11 04:48:55;;;;;;;23.97;15.70;;;3.70;99.90;;;;;;5008048;28;20210;-57
2022/01/11 04:51:21;;;;;;;30.10;15.82;;;3.70;99.90;;;;;;5013309;28;20521;-57
2022/01/11 04:53:47;;;;;;;23.58;15.90;;;3.90;99.90;;;;;;5006873;28;20230;-57
2022/01/11 04:56:14;;;;;;;23.20;16.30;;;3.90;99.90;;;;;;5007913;28;20685;-57
2022/01/11 04:58:40;;;;;;;26.08;16.38;;;3.30;99.90;;;;;;5002256;28;20204;-57
2022/01/11 05:01:06;;;;;;;20.45;14.85;;;3.90;99.90;;;;;;5001920;28;20762;-57
2022/01/11 05:03:31;;;;;;;23.23;16.27;;;4.10;99.90;;;;;;5008632;28;20191;-57
2022/01/11 05:05:57;;;;;;;24.10;16.10;;;3.40;99.90;;;;;;5012667;28;20185;-57
2022/01/11 05:08:23;;;;;;;28.58;16.27;;;3.90;99.90;;;;;;5008208;28;20199;-57
2022/01/11 05:10:49;;;;;;;29.00;15.80;;;4.20;99.90;;;;;;5006178;28;20211;-57
2022/01/11 05:13:16;;;;;;;19.33;14.17;;;3.90;99.90;;;;;;5010227;28;20238;-57
2022/01/11 05:15:42;;;;;;;24.95;15.75;;;4.10;99.90;;;;;;5012833;28;20243;-58
2022/01/11 05:18:09;;;;;;;25.33;17.08;;;3.90;99.90;;;;;;5011119;28;20708;-57
2022/01/11 05:20:36;;;;;;;27.88;19.10;;;3.80;99.90;;;;;;5012985;28;20596;-57
2022/01/11 05:23:02;;;;;;;29.48;20.20;;;4.30;99.90;;;;;;5008212;28;20753;-55
2022/01/11 05:25:28;;;;;;;34.58;19.65;;;4.10;99.90;;;;;;4989227;28;20211;-57
2022/01/11 05:27:54;;;;;;;25.87;18.00;;;4.40;99.90;;;;;;5015273;28;20226;-57
2022/01/11 05:30:20;;;;;;;24.30;19.80;;;4.60;99.90;;;;;;5002892;28;20502;-57
2022/01/11 05:32:51;;;;;;;26.95;17.70;;;4.70;99.90;;;;;;5007554;28;20518;-57
2022/01/11 05:35:19;;;;;;;21.23;15.95;;;4.60;99.90;;;;;;5001346;28;20547;-57
2022/01/11 05:37:45;;;;;;;25.52;18.38;;;4.70;99.90;;;;;;5014709;28;20193;-58
2022/01/11 05:40:11;;;;;;;26.02;17.30;;;4.80;99.90;;;;;;5006914;28;20220;-57
2022/01/11 05:42:37;;;;;;;23.60;17.30;;;4.90;99.90;;;;;;5012844;28;20192;-57
2022/01/11 05:45:05;;;;;;;23.10;16.43;;;5.00;99.90;;;;;;4998100;28;20649;-57
2022/01/11 05:47:30;;;;;;;23.85;17.17;;;4.80;99.90;;;;;;5014282;28;20497;-57
2022/01/11 05:49:56;;;;;;;25.00;17.50;;;4.60;99.90;;;;;;5001725;28;20208;-57
2022/01/11 05:52:22;;;;;;;21.70;16.93;;;4.50;99.90;;;;;;5011869;28;20222;-57
2022/01/11 05:54:47;;;;;;;26.37;17.67;;;5.00;99.90;;;;;;5009688;28;20176;-57
2022/01/11 05:57:13;;;;;;;25.47;17.30;;;4.90;99.90;;;;;;5010390;28;20274;-57
2022/01/11 05:59:39;;;;;;;24.70;17.73;;;5.00;99.90;;;;;;5005493;28;20720;-57
2022/01/11 06:02:05;;;;;;;28.87;18.70;;;4.20;99.90;;;;;;5004059;28;20903;-57
2022/01/11 06:04:31;;;;;;;25.60;18.50;;;4.80;99.90;;;;;;5008812;28;20211;-57
2022/01/11 06:06:56;;;;;;;27.27;17.63;;;4.60;99.90;;;;;;5013583;28;20183;-57
2022/01/11 06:09:26;;;;;;;25.53;18.10;;;4.50;99.90;;;;;;5011430;28;20292;-57
2022/01/11 06:11:53;;;;;;;23.85;17.98;;;4.70;99.90;;;;;;5009484;28;20686;-57
2022/01/11 06:14:19;;;;;;;27.73;18.25;;;4.40;99.90;;;;;;5015831;28;20540;-57
2022/01/11 06:16:45;;;;;;;27.80;17.30;;;4.80;99.90;;;;;;5004107;28;20710;-57
2022/01/11 06:19:10;;;;;;;25.30;18.13;;;4.80;99.90;;;;;;5004926;28;20349;-57
2022/01/11 06:21:36;;;;;;;28.63;20.50;;;4.50;99.90;;;;;;5012517;28;20531;-57
2022/01/11 06:24:02;;;;;;;23.90;18.77;;;4.60;99.90;;;;;;5009857;28;20190;-57
2022/01/11 06:26:28;;;;;;;24.80;17.50;;;4.80;99.90;;;;;;5005272;28;20196;-57
2022/01/11 06:28:56;;;;;;;29.60;17.98;;;4.80;99.90;;;;;;5011052;28;20246;-58
2022/01/11 06:31:22;;;;;;;30.48;19.67;;;4.60;99.90;;;;;;4999643;28;20275;-57
2022/01/11 06:33:48;;;;;;;25.67;18.55;;;4.50;99.90;;;;;;5002934;28;20209;-57
2022/01/11 06:36:14;;;;;;;29.97;19.80;;;4.60;99.90;;;;;;5007763;28;20179;-57
2022/01/11 06:38:41;;;;;;;26.80;18.53;;;4.60;99.90;;;;;;5003386;28;20185;-57
2022/01/11 06:41:08;;;;;;;28.35;18.55;;;4.70;99.90;;;;;;5008016;28;21037;-57
2022/01/11 06:43:33;;;;;;;29.70;18.92;;;4.80;99.90;;;;;;5007763;28;20210;-57
2022/01/11 06:45:59;;;;;;;28.47;19.40;;;4.70;99.90;;;;;;4993734;28;20568;-55
2022/01/11 06:48:25;;;;;;;28.67;18.93;;;3.70;99.90;;;;;;5000629;28;20279;-56
2022/01/11 06:50:51;;;;;;;26.67;20.13;;;4.50;99.90;;;;;;5010219;28;20469;-57
2022/01/11 06:53:16;;;;;;;29.00;19.47;;;4.40;99.90;;;;;;5014143;28;20223;-56
2022/01/11 06:55:42;;;;;;;31.57;19.20;;;4.00;99.90;;;;;;5011170;28;20242;-56
2022/01/11 06:58:08;;;;;;;23.00;18.17;;;4.80;99.90;;;;;;5003251;28;20231;-57
2022/01/11 07:00:34;;;;;;;26.60;19.98;;;4.60;99.90;;;;;;5003423;28;20223;-57
2022/01/11 07:03:00;;;;;;;27.02;19.27;;;4.40;99.90;;;;;;5002838;28;20748;-57
2022/01/11 07:05:25;;;;;;;30.47;18.73;;;3.80;99.90;;;;;;5006589;28;20218;-57
2022/01/11 07:07:51;;;;;;;28.47;20.80;;;4.70;99.90;;;;;;5008734;28;20187;-56
2022/01/11 07:10:17;;;;;;;28.23;19.10;;;4.50;99.90;;;;;;5003583;28;20220;-58
2022/01/11 07:12:43;;;;;;;30.45;19.20;;;4.70;99.90;;;;;;5004656;28;20580;-57
2022/01/11 07:15:09;;;;;;;30.67;19.10;;;4.40;99.90;;;;;;5008263;28;20200;-60
2022/01/11 07:17:34;;;;;;;30.73;20.70;;;5.00;99.90;;;;;;5009695;28;20186;-59
2022/01/11 07:20:01;;;;;;;27.93;18.40;;;4.50;99.90;;;;;;5010196;28;20536;-59
2022/01/11 07:22:27;;;;;;;25.30;19.05;;;4.70;99.90;;;;;;4991927;28;20196;-58
2022/01/11 07:24:52;;;;;;;25.13;19.10;;;4.40;99.90;;;;;;5015141;28;20197;-58
2022/01/11 07:27:18;;;;;;;27.27;19.30;;;5.00;99.90;;;;;;4998329;28;20282;-57
2022/01/11 07:29:44;;;;;;;25.60;19.20;;;5.00;99.90;;;;;;5004097;28;20207;-57
2022/01/11 07:32:10;;;;;;;26.80;18.37;;;4.90;99.90;;;;;;5013420;28;20592;-58
2022/01/11 07:34:36;;;;;;;26.67;18.90;;;4.30;99.90;;;;;;5005870;28;20190;-57
2022/01/11 07:37:02;;;;;;;24.60;18.13;;;5.10;99.90;;;;;;5009987;28;20454;-57
2022/01/11 07:39:28;;;;;;;28.87;18.93;;;5.00;99.90;;;;;;5015797;28;20291;-57
2022/01/11 07:41:53;;;;;;;27.13;18.80;;;5.00;99.90;;;;;;5006902;28;20510;-57
2022/01/11 07:44:19;;;;;;;27.23;20.20;;;4.90;99.90;;;;;;4994356;28;20193;-59
2022/01/11 07:46:46;;;;;;;27.00;19.83;;;4.80;99.90;;;;;;4999222;28;20220;-57
2022/01/11 07:49:12;;;;;;;28.50;18.17;;;5.00;99.90;;;;;;5010366;28;20213;-57
2022/01/11 07:51:37;;;;;;;24.73;17.70;;;5.10;99.90;;;;;;5016425;28;20246;-57
2022/01/11 07:54:04;;;;;;;22.83;18.03;;;5.00;99.90;;;;;;4990563;28;20217;-58
2022/01/11 07:56:29;;;;;;;23.95;18.27;;;4.90;99.90;;;;;;4998820;28;20600;-57
2022/01/11 07:58:55;;;;;;;27.73;18.17;;;5.10;99.90;;;;;;5002384;28;20205;-57
2022/01/11 08:01:21;;;;;;;24.13;19.47;;;5.30;99.90;;;;;;5006634;28;20201;-57
2022/01/11 08:03:46;;;;;;;23.90;18.23;;;5.10;99.90;;;;;;5007869;28;20274;-57
2022/01/11 08:06:13;;;;;;;23.83;18.33;;;4.50;99.90;;;;;;5012651;28;20190;-59
2022/01/11 08:08:39;;;;;;;29.98;19.08;;;5.40;99.90;;;;;;5016622;28;20189;-59
2022/01/11 08:11:04;;;;;;;24.70;18.43;;;5.00;99.90;;;;;;4995126;28;20202;-59
2022/01/11 08:13:30;;;;;;;23.70;17.60;;;4.50;99.90;;;;;;5000829;28;20485;-57
2022/01/11 08:15:56;;;;;;;24.50;18.00;;;5.10;99.90;;;;;;5000041;28;20805;-58
2022/01/11 08:18:21;;;;;;;27.37;19.67;;;5.00;99.90;;;;;;5002641;28;20435;-56
2022/01/11 08:20:48;;;;;;;26.80;19.07;;;4.50;99.90;;;;;;5001966;28;20676;-57
2022/01/11 08:23:14;;;;;;;22.85;17.60;;;4.60;99.90;;;;;;5005083;28;20646;-58
2022/01/11 08:25:40;;;;;;;21.67;16.38;;;5.10;99.90;;;;;;5001852;28;20207;-56
2022/01/11 08:28:07;;;;;;;25.40;18.77;;;5.20;99.90;;;;;;5006017;28;20737;-54
2022/01/11 08:30:34;;;;;;;24.77;17.23;;;5.20;99.90;;;;;;4997888;28;20774;-55
2022/01/11 08:33:00;;;;;;;29.77;18.40;;;5.00;99.90;;;;;;5016396;28;20608;-55
2022/01/11 08:35:30;;;;;;;22.90;17.92;;;4.70;99.90;;;;;;5008334;28;20184;-55
2022/01/11 08:37:56;;;;;;;23.60;18.25;;;5.00;99.90;;;;;;5006021;28;20716;-55
2022/01/11 08:40:22;;;;;;;24.67;17.45;;;4.90;99.90;;;;;;5001669;28;20244;-54
2022/01/11 08:42:48;;;;;;;23.55;17.55;;;5.10;99.90;;;;;;4999271;28;20182;-55
2022/01/11 08:45:14;;;;;;;20.60;16.37;;;4.80;99.90;;;;;;5005355;28;20191;-54
2022/01/11 08:47:39;;;;;;;22.07;16.37;;;5.40;99.90;;;;;;5013758;28;20186;-56
2022/01/11 08:50:07;;;;;;;19.03;15.17;;;5.40;99.90;;;;;;5013941;28;21078;-56
2022/01/11 08:52:32;;;;;;;24.30;16.00;;;5.30;99.90;;;;;;5011991;28;20221;-57
2022/01/11 08:54:58;;;;;;;25.90;17.40;;;5.00;99.90;;;;;;4998197;28;20304;-56
2022/01/11 08:57:24;;;;;;;26.93;17.67;;;5.00;99.90;;;;;;5001818;28;20191;-55
2022/01/11 08:59:49;;;;;;;23.40;16.23;;;4.00;99.90;;;;;;5016531;28;20227;-57
2022/01/11 09:02:15;;;;;;;24.37;17.47;;;5.00;99.90;;;;;;5003038;28;20581;-58
2022/01/11 09:04:42;;;;;;;24.40;17.55;;;5.20;99.90;;;;;;5000217;28;20271;-55
2022/01/11 09:07:08;;;;;;;19.85;17.73;;;5.20;99.90;;;;;;5008926;28;20182;-55
2022/01/11 09:09:33;;;;;;;22.00;17.20;;;5.20;99.90;;;;;;4999679;28;20211;-55
2022/01/11 09:12:04;;;;;;;22.03;16.87;;;5.50;99.90;;;;;;5000884;28;20501;-55
2022/01/11 09:14:30;;;;;;;24.30;17.83;;;5.30;99.90;;;;;;5002449;28;20522;-54
2022/01/11 09:16:57;;;;;;;21.27;16.55;;;5.50;99.90;;;;;;5002498;28;20191;-55
2022/01/11 09:19:23;;;;;;;19.33;14.93;;;5.70;99.90;;;;;;4999864;28;20280;-55
2022/01/11 09:21:49;;;;;;;19.90;14.80;;;6.20;99.90;;;;;;5005239;28;20267;-55
2022/01/11 09:24:19;;;;;;;22.20;15.80;;;5.80;99.90;;;;;;5003863;28;20759;-55
2022/01/11 09:26:46;;;;;;;18.60;14.68;;;5.30;99.90;;;;;;5004637;28;20205;-57
2022/01/11 09:29:12;;;;;;;18.35;15.60;;;5.10;99.90;;;;;;5004201;28;20294;-56
2022/01/11 09:31:37;;;;;;;23.67;15.80;;;5.50;99.90;;;;;;4993549;28;20624;-57
2022/01/11 09:34:03;;;;;;;21.20;16.17;;;5.50;99.90;;;;;;5010611;28;20192;-56
2022/01/11 09:36:30;;;;;;;20.23;15.95;;;5.40;99.90;;;;;;5014878;28;20191;-56
2022/01/11 09:38:56;;;;;;;21.98;15.55;;;5.80;99.90;;;;;;5007649;28;20320;-57
2022/01/11 09:41:21;;;;;;;22.77;15.25;;;5.70;99.90;;;;;;5013961;28;20201;-57
2022/01/11 09:43:48;;;;;;;25.70;16.83;;;5.70;99.90;;;;;;5013027;28;20815;-66
2022/01/11 09:46:14;;;;;;;20.40;15.80;;;6.10;99.90;;;;;;5007260;28;20199;-58
2022/01/11 09:48:41;;;;;;;21.48;15.88;;;5.70;99.90;;;;;;5022315;28;20198;-57
2022/01/11 09:51:07;;;;;;;19.60;16.20;;;5.40;99.90;;;;;;5002474;28;20211;-58
2022/01/11 09:53:33;;;;;;;20.90;15.57;;;5.80;99.90;;;;;;5007749;28;20291;-58
2022/01/11 09:56:07;;;;;;;21.03;15.53;;;5.80;99.90;;;;;;5014785;28;20483;-57
2022/01/11 09:58:33;;;;;;;23.15;15.60;;;6.30;99.90;;;;;;5017519;28;20445;-57
2022/01/11 10:00:59;;;;;;;18.27;15.43;;;6.40;99.90;;;;;;5005308;28;20308;-56
2022/01/11 10:03:25;;;;;;;19.25;15.30;;;6.40;99.90;;;;;;5015690;28;20191;-57
2022/01/11 10:05:51;;;;;;;23.30;16.30;;;5.80;99.90;;;;;;5016298;28;20840;-57
2022/01/11 10:08:26;;;;;;;19.67;14.57;;;6.10;99.90;;;;;;5006326;28;20202;-56
2022/01/11 10:10:52;;;;;;;18.10;14.57;;;6.40;99.90;;;;;;4997223;28;20207;-58
2022/01/11 10:13:34;;;;;;;24.70;15.63;;;6.40;99.90;;;;;;5005595;28;20210;-57
2022/01/11 10:16:23;;;;;;;19.45;16.05;;;6.30;99.90;;;;;;5000857;28;20182;-58
2022/01/11 10:18:51;;;;;;;20.20;14.43;;;6.30;99.90;;;;;;5009604;28;20273;-58
2022/01/11 10:21:34;;;;;;;22.92;15.75;;;6.20;99.90;;;;;;5012208;28;20182;-58
2022/01/11 10:24:19;;;;;;;22.10;15.45;;;6.30;99.90;;;;;;5007473;28;20183;-56
2022/01/11 10:26:45;;;;;;;18.58;14.70;;;6.50;99.90;;;;;;5002794;28;20190;-57
2022/01/11 10:29:23;;;;;;;18.60;14.32;;;6.60;99.90;;;;;;5016391;28;20209;-57
2022/01/11 10:31:48;;;;;;;22.30;16.15;;;6.40;99.90;;;;;;5003961;28;20747;-56
2022/01/11 10:34:14;;;;;;;21.67;14.93;;;6.70;99.90;;;;;;5017509;28;20291;-57
2022/01/11 10:36:46;;;;;;;23.53;15.77;;;6.50;99.90;;;;;;4997810;28;20199;-56
2022/01/11 10:39:38;;;;;;;18.55;13.70;;;6.40;99.90;;;;;;5004251;28;20207;-55
2022/01/11 10:42:06;;;;;;;19.25;15.65;;;6.40;99.90;;;;;;5014684;28;20683;-55
2022/01/11 10:44:51;;;;;;;17.15;13.95;;;6.80;99.90;;;;;;5008697;28;20617;-58
2022/01/11 10:47:26;;;;;;;20.65;15.98;;;7.10;99.90;;;;;;5016686;28;20182;-55
2022/01/11 10:50:18;;;;;;;25.90;16.23;;;6.70;99.90;;;;;;5015683;28;20843;-56
2022/01/11 10:52:44;;;;;;;20.25;14.43;;;6.40;99.90;;;;;;5001961;28;20219;-56
2022/01/11 10:55:14;;;;;;;20.05;14.55;;;6.70;99.90;;;;;;5001884;28;20210;-55
2022/01/11 10:57:41;;;;;;;17.98;14.82;;;6.70;99.90;;;;;;5010789;28;20184;-60
2022/01/11 11:00:16;;;;;;;22.15;15.77;;;6.80;99.90;;;;;;5000910;28;20306;-57
2022/01/11 11:02:43;;;;;;;15.90;12.25;;;7.00;99.90;;;;;;4998449;28;20565;-58
2022/01/11 11:05:25;;;;;;;16.85;13.38;;;7.00;99.90;;;;;;5019876;28;20282;-57
2022/01/11 11:08:11;;;;;;;17.77;13.60;;;7.20;99.90;;;;;;5013079;28;20183;-58
2022/01/11 11:10:50;;;;;;;20.85;13.75;;;7.30;99.90;;;;;;4994471;28;20712;-58
2022/01/11 11:13:20;;;;;;;19.10;14.02;;;7.10;99.90;;;;;;5021992;28;20218;-58
2022/01/11 11:15:45;;;;;;;19.90;13.73;;;7.40;99.90;;;;;;4996938;28;20229;-58
2022/01/11 11:18:41;;;;;;;16.40;12.77;;;7.30;99.90;;;;;;5013052;28;20183;-58
2022/01/11 11:21:23;;;;;;;16.52;12.95;;;7.30;99.90;;;;;;4992896;28;20581;-57
2022/01/11 11:24:05;;;;;;;16.65;12.32;;;7.40;99.90;;;;;;4999711;28;20262;-58
2022/01/11 11:26:37;;;;;;;18.63;12.82;;;7.60;99.90;;;;;;5007815;28;20183;-57
2022/01/11 11:29:07;;;;;;;18.35;13.10;;;6.90;99.90;;;;;;5017311;28;20181;-58
2022/01/11 11:31:34;;;;;;;16.52;12.23;;;8.20;99.90;;;;;;4994514;28;20191;-59
2022/01/11 11:34:01;;;;;;;16.40;11.77;;;7.70;99.90;;;;;;5006541;28;22248;-58
2022/01/11 11:36:29;;;;;;;16.92;12.85;;;7.70;99.90;;;;;;5015203;28;20218;-57
2022/01/11 11:39:02;;;;;;;17.73;12.43;;;7.40;99.90;;;;;;5017902;28;20198;-59
2022/01/11 11:41:29;;;;;;;18.60;12.48;;;7.60;99.90;;;;;;4994922;28;20184;-59
2022/01/11 11:44:24;;;;;;;14.95;11.60;;;7.70;99.90;;;;;;5002749;28;21025;-59
2022/01/11 11:47:06;;;;;;;14.75;11.55;;;7.90;99.90;;;;;;5005545;28;20190;-57
2022/01/11 11:49:51;;;;;;;13.27;10.77;;;7.90;99.90;;;;;;5008530;28;20234;-58
2022/01/11 11:52:22;;;;;;;12.80;10.05;;;7.80;99.90;;;;;;5000826;28;20660;-58
2022/01/11 11:54:52;;;;;;;12.60;10.05;;;7.80;99.70;;;;;;5008913;28;20554;-58
2022/01/11 11:57:20;;;;;;;13.85;10.90;;;7.90;99.70;;;;;;5012879;28;20328;-57
2022/01/11 12:00:00;;;;;;;18.13;11.90;;;7.50;99.80;;;;;;4992040;28;20230;-58
2022/01/11 12:02:50;;;;;;;17.67;13.00;;;7.40;99.90;;;;;;5007978;28;20205;-58
2022/01/11 12:05:38;;;;;;;6.80;5.93;;;7.60;99.90;;;;;;4984835;28;20696;-58
2022/01/11 12:08:38;;;;;;;10.18;8.30;;;7.50;97.30;;;;;;4992050;28;20594;-58
2022/01/11 12:11:08;;;;;;;10.25;7.28;;;7.30;97.40;;;;;;4991869;28;20249;-58
2022/01/11 12:13:51;;;;;;;11.07;7.72;;;7.30;97.70;;;;;;4996363;28;20215;-57
2022/01/11 12:16:38;;;;;;;9.95;7.20;;;7.40;98.20;;;;;;5004250;28;20186;-58
2022/01/11 12:19:05;;;;;;;8.73;7.05;;;7.30;97.50;;;;;;5002756;28;20555;-55
2022/01/11 12:21:52;;;;;;;8.82;6.40;;;7.50;96.20;;;;;;5005534;28;20194;-55
2022/01/11 12:24:37;;;;;;;5.60;4.90;;;7.30;95.80;;;;;;5000965;28;20661;-55
2022/01/11 12:27:03;;;;;;;6.30;5.40;;;7.40;95.40;;;;;;4996156;28;20211;-58
2022/01/11 12:29:30;;;;;;;3.28;2.80;;;7.30;95.20;;;;;;5011239;28;20234;-58
2022/01/11 12:32:03;;;;;;;6.10;4.35;;;7.30;93.60;;;;;;5009986;28;20198;-57
2022/01/11 12:34:48;;;;;;;6.38;4.82;;;7.30;94.20;;;;;;4999947;28;20266;-58
2022/01/11 12:37:45;;;;;;;4.25;3.55;;;7.30;94.10;;;;;;5002685;28;20273;-58
2022/01/11 12:40:19;;;;;;;4.07;3.67;;;7.00;94.00;;;;;;5004035;28;20298;-57
2022/01/11 12:42:51;;;;;;;4.45;3.47;;;6.60;94.40;;;;;;5001354;28;20190;-57
2022/01/11 12:47:47;;;;;;;5.25;4.40;;;7.10;94.30;;;;;;5012571;28;20186;-58